Time;durP1;ratioP1;P1;durP2;ratioP2;P2;SDS_P1;SDS_P2;PMS_P1;PMS_P2;Temp;Humidity;BMP_temperature;BMP_pressure;BME280_temperature;BME280_humidity;BME280_pressure;Samples;Min_cycle;Max_cycle;Signal;HPM_P1;HPM_P2
2022/06/27 19:42:26;;;;;;;9.50;9.20;;;26.50;91.60;;;;;;5081738;27;20563;-54
2022/06/27 19:44:53;;;;;;;9.23;9.03;;;26.70;89.70;;;;;;5068914;28;20709;-48
2022/06/27 19:47:20;;;;;;;9.40;8.90;;;26.70;88.60;;;;;;5068984;28;20454;-51
2022/06/27 19:49:47;;;;;;;9.07;8.87;;;26.60;88.10;;;;;;5068868;28;20478;-50
2022/06/27 19:52:14;;;;;;;9.10;8.80;;;26.60;87.10;;;;;;5068679;28;20479;-50
2022/06/27 19:54:40;;;;;;;8.70;8.40;;;26.50;89.20;;;;;;5069330;28;21019;-57
2022/06/27 19:57:07;;;;;;;8.30;8.10;;;26.50;88.40;;;;;;5068787;28;20526;-56
2022/06/27 19:59:37;;;;;;;8.03;7.83;;;26.50;86.40;;;;;;5068736;28;20909;-58
2022/06/27 20:02:05;;;;;;;8.93;8.63;;;26.40;88.60;;;;;;5068368;28;20463;-59
2022/06/27 20:04:34;;;;;;;7.53;7.40;;;26.30;87.30;;;;;;5068631;28;20447;-56
2022/06/27 20:09:42;;;;;;;8.70;8.50;;;26.30;87.00;;;;;;5068227;28;20431;-57
2022/06/27 20:12:10;;;;;;;8.47;8.27;;;26.20;88.40;;;;;;5068231;28;20483;-55
2022/06/27 20:14:39;;;;;;;7.90;7.70;;;26.10;87.10;;;;;;5068479;28;20530;-58
2022/06/27 20:17:06;;;;;;;7.57;7.27;;;26.10;87.80;;;;;;5068381;28;20444;-56
2022/06/27 20:19:33;;;;;;;6.80;6.70;;;26.10;86.20;;;;;;5068290;28;20478;-56
2022/06/27 20:22:00;;;;;;;8.10;7.90;;;26.00;87.90;;;;;;5067871;28;20517;-60
2022/06/27 20:24:27;;;;;;;8.30;7.93;;;26.00;89.90;;;;;;5068375;28;20481;-58
2022/06/27 20:26:54;;;;;;;7.70;7.50;;;26.00;88.40;;;;;;5068083;28;20512;-57
2022/06/27 20:29:21;;;;;;;8.37;8.17;;;25.90;90.00;;;;;;5068170;28;20597;-56
2022/06/27 20:31:50;;;;;;;8.10;7.90;;;25.90;89.40;;;;;;5067742;28;20490;-58
2022/06/27 20:34:17;;;;;;;8.03;7.83;;;25.90;88.10;;;;;;5067955;28;20985;-60
2022/06/27 20:36:44;;;;;;;7.50;7.30;;;25.90;88.50;;;;;;5068026;28;20448;-56
2022/06/27 20:39:11;;;;;;;7.60;7.20;;;25.80;89.80;;;;;;5067979;28;20443;-55
2022/06/27 20:41:38;;;;;;;7.43;7.23;;;25.80;90.90;;;;;;5067514;28;20455;-55
2022/06/27 20:44:06;;;;;;;7.30;7.10;;;25.80;89.90;;;;;;5067816;28;20529;-58
2022/06/27 20:46:34;;;;;;;7.50;7.30;;;25.70;90.10;;;;;;5067659;28;20501;-59
2022/06/27 20:49:04;;;;;;;7.67;7.40;;;25.70;91.10;;;;;;5067610;28;20917;-57
2022/06/27 20:51:31;;;;;;;7.47;7.27;;;25.70;89.60;;;;;;5066905;28;20483;-56
2022/06/27 20:53:58;;;;;;;7.53;7.27;;;25.70;90.20;;;;;;5054018;28;20478;-58
2022/06/27 20:56:25;;;;;;;7.20;6.80;;;25.70;90.20;;;;;;5054435;28;20506;-59
2022/06/27 20:58:52;;;;;;;8.10;7.90;;;25.60;90.30;;;;;;5054358;28;20770;-59
2022/06/27 21:01:23;;;;;;;8.30;8.10;;;25.60;90.50;;;;;;5054085;28;20525;-58
2022/06/27 21:03:50;;;;;;;8.00;7.70;;;25.60;90.60;;;;;;5054272;28;20972;-58
2022/06/27 21:06:19;;;;;;;7.53;7.33;;;25.60;89.90;;;;;;5054209;28;20487;-58
2022/06/27 21:11:49;;;;;;;8.03;7.73;;;25.50;90.00;;;;;;5053957;28;20533;-59
2022/06/27 21:14:16;;;;;;;9.30;9.00;;;25.50;89.50;;;;;;5054206;28;20448;-58
2022/06/27 21:16:43;;;;;;;8.73;8.53;;;25.50;90.10;;;;;;5054237;28;20513;-59
2022/06/27 21:19:10;;;;;;;7.90;7.70;;;25.50;88.40;;;;;;5053999;28;20436;-59
2022/06/27 21:21:40;;;;;;;7.30;7.10;;;25.50;88.40;;;;;;5062039;28;20526;-59
2022/06/27 21:24:08;;;;;;;8.60;8.20;;;25.50;90.20;;;;;;5061062;28;20809;-57
2022/06/27 21:26:35;;;;;;;7.90;7.70;;;25.50;88.90;;;;;;5069159;28;20527;-56
2022/06/27 21:29:03;;;;;;;7.80;7.50;;;25.40;89.00;;;;;;5073185;28;20454;-59
2022/06/27 21:31:30;;;;;;;7.67;7.47;;;25.40;90.10;;;;;;5038752;28;20840;-55
2022/06/27 21:33:57;;;;;;;6.93;6.73;;;25.40;89.60;;;;;;5072444;28;20562;-59
2022/06/27 21:36:24;;;;;;;7.50;7.30;;;25.40;89.50;;;;;;5059730;28;20538;-59
2022/06/27 21:38:52;;;;;;;7.40;7.20;;;25.40;90.20;;;;;;5053576;28;20506;-59
2022/06/27 21:41:19;;;;;;;8.37;8.17;;;25.40;90.10;;;;;;5033293;28;20888;-59
2022/06/27 21:43:46;;;;;;;7.40;7.20;;;25.40;90.80;;;;;;5049015;28;20471;-56
2022/06/27 21:46:13;;;;;;;7.60;7.40;;;25.30;90.40;;;;;;5065327;28;20544;-58
2022/06/27 21:48:40;;;;;;;7.07;6.87;;;25.30;90.30;;;;;;5073135;28;20534;-58
2022/06/27 21:51:07;;;;;;;8.23;8.00;;;25.30;90.50;;;;;;5072838;28;21042;-59
2022/06/27 21:53:34;;;;;;;7.50;7.20;;;25.30;90.60;;;;;;5069886;28;20503;-58
2022/06/27 21:56:03;;;;;;;8.03;7.73;;;25.30;90.70;;;;;;5063168;28;20539;-59
2022/06/27 21:58:30;;;;;;;6.90;6.70;;;25.30;91.20;;;;;;5059712;28;20455;-59
2022/06/27 22:00:57;;;;;;;7.13;6.93;;;25.30;91.80;;;;;;5071249;28;20581;-58
2022/06/27 22:03:24;;;;;;;8.03;7.50;;;25.20;91.50;;;;;;5052675;28;21027;-59
2022/06/27 22:05:52;;;;;;;6.90;6.70;;;25.20;90.20;;;;;;5060780;28;20447;-58
2022/06/27 22:08:19;;;;;;;7.00;6.80;;;25.20;91.20;;;;;;5072783;28;20471;-57
2022/06/27 22:10:46;;;;;;;6.93;6.73;;;25.20;90.20;;;;;;5072395;28;20853;-58
2022/06/27 22:13:14;;;;;;;7.77;7.40;;;25.20;89.30;;;;;;5063080;28;20647;-57
2022/06/27 22:15:45;;;;;;;7.77;7.47;;;25.20;90.50;;;;;;5059592;28;20522;-57
2022/06/27 22:18:13;;;;;;;6.60;6.40;;;25.20;90.90;;;;;;5072683;28;20451;-55
2022/06/27 22:20:42;;;;;;;7.63;7.43;;;25.10;90.30;;;;;;5072810;28;20835;-56
2022/06/27 22:23:10;;;;;;;6.83;6.73;;;25.20;92.80;;;;;;5070249;28;20536;-54
2022/06/27 22:25:37;;;;;;;7.53;7.33;;;25.10;89.90;;;;;;5066245;28;20535;-56
2022/06/27 22:28:04;;;;;;;7.77;7.53;;;25.10;89.60;;;;;;5052694;28;20527;-57
2022/06/27 22:30:32;;;;;;;7.80;7.60;;;25.10;91.60;;;;;;5052560;28;20543;-56
2022/06/27 22:33:00;;;;;;;6.77;6.57;;;25.10;90.10;;;;;;5056135;28;20483;-55
2022/06/27 22:35:27;;;;;;;7.33;7.03;;;25.10;90.50;;;;;;5054591;28;21020;-58
2022/06/27 22:37:54;;;;;;;7.50;7.30;;;25.10;90.00;;;;;;5052576;28;20444;-58
2022/06/27 22:40:21;;;;;;;8.03;7.73;;;25.10;90.80;;;;;;5052154;28;20499;-59
2022/06/27 22:42:48;;;;;;;7.00;6.80;;;25.00;91.30;;;;;;5052306;28;20492;-58
2022/06/27 22:45:15;;;;;;;6.90;6.70;;;25.00;91.20;;;;;;5067211;28;20450;-57
2022/06/27 22:47:43;;;;;;;7.13;6.77;;;25.00;90.10;;;;;;5071973;28;20478;-57
2022/06/27 22:50:10;;;;;;;7.10;6.90;;;25.00;90.30;;;;;;5072153;28;20964;-58
2022/06/27 22:52:37;;;;;;;7.13;6.93;;;25.00;90.10;;;;;;5071713;28;20479;-57
2022/06/27 22:55:06;;;;;;;7.23;7.03;;;25.00;90.00;;;;;;5058460;28;20478;-59
2022/06/27 22:57:33;;;;;;;7.40;7.20;;;25.00;89.80;;;;;;5052155;28;20531;-58
2022/06/27 23:00:00;;;;;;;7.63;7.43;;;25.00;89.00;;;;;;5058449;28;20530;-59
2022/06/27 23:02:26;;;;;;;7.50;7.20;;;24.90;88.40;;;;;;5069627;28;20489;-54
2022/06/27 23:04:55;;;;;;;7.93;7.73;;;25.00;88.30;;;;;;5060146;28;20479;-57
2022/06/27 23:07:22;;;;;;;7.40;7.10;;;25.00;89.20;;;;;;5051869;28;20446;-58
2022/06/27 23:09:49;;;;;;;7.13;6.83;;;24.90;89.60;;;;;;5051866;28;20451;-59
2022/06/27 23:12:16;;;;;;;7.67;7.30;;;24.90;90.00;;;;;;5052073;28;20515;-59
2022/06/27 23:14:43;;;;;;;6.97;6.87;;;24.90;89.30;;;;;;5061150;28;20526;-59
2022/06/27 23:17:10;;;;;;;6.90;6.70;;;24.90;88.80;;;;;;5051726;28;20451;-58
2022/06/27 23:19:36;;;;;;;6.87;6.67;;;24.90;88.10;;;;;;5051936;28;20476;-58
2022/06/27 23:22:05;;;;;;;7.17;6.97;;;24.90;88.80;;;;;;5051447;28;20495;-59
2022/06/27 23:24:32;;;;;;;8.23;8.03;;;24.90;89.50;;;;;;5055335;28;20491;-57
2022/06/27 23:26:59;;;;;;;6.43;6.23;;;24.90;89.30;;;;;;5051735;28;20536;-57
2022/06/27 23:29:26;;;;;;;7.00;6.70;;;24.90;90.10;;;;;;5059312;28;20968;-57
2022/06/27 23:31:54;;;;;;;7.30;7.13;;;24.90;90.10;;;;;;5064370;28;20587;-58
2022/06/27 23:34:21;;;;;;;6.77;6.57;;;24.90;89.40;;;;;;5051657;28;20447;-53
2022/06/27 23:36:48;;;;;;;7.30;7.10;;;24.90;88.90;;;;;;5051683;28;20888;-56
2022/06/27 23:39:16;;;;;;;7.77;7.47;;;24.80;88.90;;;;;;5051474;28;20484;-59
2022/06/27 23:41:43;;;;;;;7.40;7.10;;;24.90;89.50;;;;;;5057406;28;20538;-58
2022/06/27 23:44:10;;;;;;;6.23;6.03;;;24.80;88.90;;;;;;5071226;28;20526;-58
2022/06/27 23:46:37;;;;;;;7.07;6.87;;;24.80;89.40;;;;;;5071564;28;20451;-54
2022/06/27 23:49:04;;;;;;;6.53;6.33;;;24.80;89.30;;;;;;5070843;28;20838;-57
2022/06/27 23:51:31;;;;;;;8.33;8.03;;;24.80;89.70;;;;;;5066139;28;20440;-58
2022/06/27 23:53:58;;;;;;;7.10;6.90;;;24.80;90.50;;;;;;5065989;28;20450;-59
2022/06/27 23:56:26;;;;;;;7.83;7.63;;;24.80;90.10;;;;;;5071462;28;20546;-59
2022/06/27 23:58:53;;;;;;;7.10;6.60;;;24.80;90.00;;;;;;5071146;28;20879;-57
